Time;durP1;ratioP1;P1;durP2;ratioP2;P2;SDS_P1;SDS_P2;PMS_P1;PMS_P2;Temp;Humidity;BMP_temperature;BMP_pressure;BME280_temperature;BME280_humidity;BME280_pressure;Samples;Min_cycle;Max_cycle;Signal;HPM_P1;HPM_P2
2022/08/29 00:00:33;;;;;;;11.90;8.10;;;18.90;84.90;;;;;;5042403;28;20208;-71
2022/08/29 00:02:59;;;;;;;12.83;7.30;;;18.90;84.90;;;;;;5038652;28;20188;-71
2022/08/29 00:05:35;;;;;;;12.63;8.13;;;18.90;84.90;;;;;;5041488;28;20430;-71
2022/08/29 00:08:02;;;;;;;13.20;7.93;;;18.90;85.00;;;;;;5037481;28;20184;-72
2022/08/29 00:10:31;;;;;;;18.80;9.57;;;18.90;85.20;;;;;;5039513;28;20570;-70
2022/08/29 00:12:56;;;;;;;12.90;8.30;;;18.80;85.20;;;;;;5033834;28;20945;-71
2022/08/29 00:15:22;;;;;;;11.57;8.13;;;18.80;85.30;;;;;;5041578;28;20460;-72
2022/08/29 00:17:48;;;;;;;13.10;7.80;;;18.80;85.30;;;;;;5045091;28;20667;-72
2022/08/29 00:20:18;;;;;;;14.10;8.37;;;18.80;85.30;;;;;;5038941;28;20216;-71
2022/08/29 00:22:43;;;;;;;13.70;7.90;;;18.70;85.50;;;;;;5042388;28;20437;-71
2022/08/29 00:25:11;;;;;;;13.20;8.60;;;18.70;85.30;;;;;;5038328;28;20431;-71
2022/08/29 00:27:37;;;;;;;12.50;8.20;;;18.80;85.00;;;;;;5035539;28;20189;-71
2022/08/29 00:30:04;;;;;;;10.67;7.27;;;18.80;85.00;;;;;;5038173;28;20416;-70
2022/08/29 00:32:33;;;;;;;10.27;6.73;;;18.70;85.00;;;;;;5038992;28;20197;-71
2022/08/29 00:35:05;;;;;;;12.97;7.53;;;18.70;85.50;;;;;;5038755;28;20468;-71
2022/08/29 00:37:31;;;;;;;10.97;7.30;;;18.60;85.70;;;;;;5046525;28;20421;-71
2022/08/29 00:39:57;;;;;;;12.67;8.20;;;18.60;86.00;;;;;;5039543;28;20422;-70
2022/08/29 00:42:22;;;;;;;11.93;7.60;;;18.60;85.90;;;;;;5044131;28;20173;-71
2022/08/29 00:44:48;;;;;;;13.93;8.67;;;18.60;86.00;;;;;;5038982;28;20213;-71
2022/08/29 00:47:24;;;;;;;12.30;7.23;;;18.60;86.00;;;;;;5042819;28;20190;-71
2022/08/29 00:49:53;;;;;;;15.23;8.13;;;18.50;86.00;;;;;;5044901;28;20251;-70
2022/08/29 00:52:30;;;;;;;13.20;8.23;;;18.50;86.00;;;;;;5046409;28;20435;-70
2022/08/29 00:54:57;;;;;;;12.33;7.87;;;18.40;86.30;;;;;;5042651;28;20494;-69
2022/08/29 00:57:25;;;;;;;11.83;7.80;;;18.40;86.50;;;;;;5047592;28;20432;-70
2022/08/29 00:59:51;;;;;;;17.30;8.60;;;18.40;86.60;;;;;;5042799;28;20429;-71
2022/08/29 01:02:17;;;;;;;13.60;8.13;;;18.40;86.60;;;;;;5047321;28;20446;-70
2022/08/29 01:04:44;;;;;;;15.30;8.27;;;18.40;86.60;;;;;;5046100;28;20420;-70
2022/08/29 01:07:10;;;;;;;14.13;9.03;;;18.30;86.90;;;;;;5044270;28;20427;-70
2022/08/29 01:09:38;;;;;;;14.00;8.60;;;18.30;86.80;;;;;;5042013;28;20433;-70
2022/08/29 01:12:14;;;;;;;11.77;7.53;;;18.20;87.00;;;;;;5045294;28;20238;-71
2022/08/29 01:14:46;;;;;;;12.40;8.53;;;18.30;87.10;;;;;;5040066;28;20461;-71
2022/08/29 01:17:16;;;;;;;14.40;8.17;;;18.30;87.00;;;;;;5040995;28;20853;-71
2022/08/29 01:19:54;;;;;;;14.63;8.83;;;18.20;87.10;;;;;;5047580;28;20492;-71
2022/08/29 01:23:00;;;;;;;13.93;7.77;;;18.20;87.00;;;;;;5039848;28;20449;-70
2022/08/29 01:25:31;;;;;;;11.80;8.20;;;18.10;87.30;;;;;;5045213;28;20421;-70
2022/08/29 01:28:17;;;;;;;14.00;8.30;;;18.10;87.40;;;;;;5045854;28;20941;-72
2022/08/29 01:31:02;;;;;;;15.20;9.47;;;18.10;87.40;;;;;;5044262;28;20479;-69
2022/08/29 01:33:40;;;;;;;10.97;7.97;;;18.00;87.40;;;;;;5041187;28;20430;-71
2022/08/29 01:36:06;;;;;;;14.73;8.30;;;18.00;87.80;;;;;;5047619;28;20422;-70
2022/08/29 01:38:32;;;;;;;13.87;9.20;;;18.00;88.00;;;;;;5044461;28;20502;-71
2022/08/29 01:40:58;;;;;;;16.33;9.27;;;18.00;88.10;;;;;;5044142;28;20942;-72
2022/08/29 01:43:25;;;;;;;13.60;8.77;;;17.90;88.10;;;;;;5044406;28;20216;-71
2022/08/29 01:45:52;;;;;;;14.30;8.50;;;17.90;88.40;;;;;;5045227;28;20411;-70
2022/08/29 01:48:18;;;;;;;16.40;8.60;;;17.90;88.60;;;;;;5043836;28;20427;-69
2022/08/29 01:50:45;;;;;;;14.67;8.40;;;17.90;88.60;;;;;;5039611;28;20457;-70
2022/08/29 01:53:11;;;;;;;14.83;8.30;;;17.80;88.70;;;;;;5045301;28;20428;-72
2022/08/29 01:55:37;;;;;;;12.93;7.67;;;17.80;88.70;;;;;;5034900;28;20440;-72
2022/08/29 01:58:04;;;;;;;13.77;9.30;;;17.90;88.60;;;;;;5045954;28;20477;-72
2022/08/29 02:00:30;;;;;;;13.57;9.07;;;17.90;88.10;;;;;;5035941;28;20990;-71
2022/08/29 02:02:59;;;;;;;13.30;8.47;;;17.80;88.10;;;;;;5044283;28;20458;-71
2022/08/29 02:05:25;;;;;;;13.10;7.40;;;17.70;88.60;;;;;;5037596;28;20490;-71
2022/08/29 02:07:51;;;;;;;14.93;8.50;;;17.70;88.60;;;;;;5046384;28;20479;-69
2022/08/29 02:10:17;;;;;;;12.97;8.07;;;17.70;88.60;;;;;;5040476;28;21003;-71
2022/08/29 02:12:43;;;;;;;13.47;8.27;;;17.60;89.00;;;;;;5037601;28;20197;-71
2022/08/29 02:15:10;;;;;;;14.57;7.90;;;17.60;89.00;;;;;;5042154;28;20549;-71
2022/08/29 02:17:37;;;;;;;14.63;8.70;;;17.60;89.00;;;;;;5042021;28;20435;-71
2022/08/29 02:20:07;;;;;;;11.57;8.90;;;17.60;89.30;;;;;;5040681;28;20431;-70
2022/08/29 02:22:33;;;;;;;13.77;9.40;;;17.50;89.90;;;;;;5041994;28;20454;-72
2022/08/29 02:24:58;;;;;;;15.87;9.40;;;17.50;90.10;;;;;;5039311;28;20931;-72
2022/08/29 02:27:24;;;;;;;19.13;9.50;;;17.50;90.20;;;;;;5042459;28;20428;-71
2022/08/29 02:29:49;;;;;;;18.73;9.30;;;17.50;90.40;;;;;;5034284;28;20189;-73
2022/08/29 02:32:16;;;;;;;13.07;9.33;;;17.50;90.40;;;;;;5038761;28;20220;-72
2022/08/29 02:34:45;;;;;;;15.70;8.87;;;17.50;90.40;;;;;;5042569;28;20358;-72
2022/08/29 02:37:11;;;;;;;13.80;8.83;;;17.50;90.40;;;;;;5041110;28;20440;-70
2022/08/29 02:39:37;;;;;;;13.87;9.00;;;17.50;90.40;;;;;;5045499;28;20536;-71
2022/08/29 02:42:03;;;;;;;15.13;10.03;;;17.50;90.40;;;;;;5039004;28;20462;-74
2022/08/29 02:44:29;;;;;;;15.57;9.47;;;17.40;90.40;;;;;;5041235;28;20207;-71
2022/08/29 02:46:55;;;;;;;12.43;8.80;;;17.40;90.50;;;;;;5035363;28;21096;-73
2022/08/29 02:49:20;;;;;;;18.37;8.83;;;17.40;90.40;;;;;;5041698;28;20263;-72
2022/08/29 02:51:46;;;;;;;16.37;9.80;;;17.40;90.50;;;;;;5033650;28;20211;-73
2022/08/29 02:54:11;;;;;;;14.37;8.87;;;17.30;90.60;;;;;;5046555;28;20316;-72
2022/08/29 02:56:38;;;;;;;15.03;8.43;;;17.30;90.80;;;;;;5038689;28;20188;-73
2022/08/29 02:59:04;;;;;;;13.10;8.37;;;17.30;90.20;;;;;;5043359;28;20191;-70
2022/08/29 03:01:30;;;;;;;15.90;9.60;;;17.30;90.00;;;;;;5036101;28;20459;-71
2022/08/29 03:03:56;;;;;;;18.60;10.90;;;17.30;90.10;;;;;;5041618;28;20493;-72
2022/08/29 03:06:22;;;;;;;17.77;9.50;;;17.30;90.20;;;;;;5037510;28;20419;-70
2022/08/29 03:08:49;;;;;;;15.17;9.00;;;17.30;90.70;;;;;;5043528;28;20514;-73
2022/08/29 03:11:16;;;;;;;17.33;10.00;;;17.30;90.90;;;;;;5040309;28;20462;-72
2022/08/29 03:13:43;;;;;;;15.00;10.10;;;17.30;90.90;;;;;;5037695;28;20491;-72
2022/08/29 03:16:09;;;;;;;16.70;9.97;;;17.20;90.90;;;;;;5036741;28;20423;-71
2022/08/29 03:18:35;;;;;;;15.13;9.93;;;17.20;91.20;;;;;;5040295;28;20454;-71
2022/08/29 03:21:00;;;;;;;18.33;9.90;;;17.20;91.40;;;;;;5040508;28;20480;-73
2022/08/29 03:23:26;;;;;;;14.80;9.37;;;17.20;91.50;;;;;;5041285;28;20188;-73
2022/08/29 03:25:52;;;;;;;14.73;9.20;;;17.20;91.40;;;;;;5039863;28;20207;-71
2022/08/29 03:28:18;;;;;;;16.63;10.37;;;17.10;90.90;;;;;;5044365;28;20188;-69
2022/08/29 03:30:44;;;;;;;14.77;8.83;;;17.10;90.80;;;;;;5042715;28;21024;-72
2022/08/29 03:33:10;;;;;;;16.10;10.17;;;17.00;90.90;;;;;;5040127;28;20271;-71
2022/08/29 03:35:35;;;;;;;17.87;11.37;;;17.00;91.20;;;;;;5035839;28;20248;-71
2022/08/29 03:38:01;;;;;;;11.30;8.80;;;17.00;91.30;;;;;;5042353;28;20962;-71
2022/08/29 03:40:27;;;;;;;13.90;9.30;;;17.10;91.30;;;;;;5039588;28;20200;-71
2022/08/29 03:42:53;;;;;;;16.33;9.97;;;17.10;91.40;;;;;;5043022;28;20313;-70
2022/08/29 03:45:20;;;;;;;17.97;10.43;;;17.10;91.50;;;;;;5039407;28;20611;-71
2022/08/29 03:47:46;;;;;;;17.90;11.27;;;17.10;91.50;;;;;;5039366;28;20426;-70
2022/08/29 03:50:13;;;;;;;13.60;9.40;;;17.00;91.50;;;;;;5040936;28;20426;-71
2022/08/29 03:52:41;;;;;;;12.87;9.43;;;17.00;91.60;;;;;;5032695;28;20427;-73
2022/08/29 03:55:08;;;;;;;14.57;10.00;;;17.00;91.60;;;;;;5038054;28;20947;-72
2022/08/29 03:57:33;;;;;;;16.13;9.03;;;16.90;91.70;;;;;;5038143;28;20518;-73
2022/08/29 04:00:00;;;;;;;18.90;10.17;;;16.80;91.70;;;;;;5042531;28;20854;-72
2022/08/29 04:02:26;;;;;;;15.50;9.77;;;16.80;91.80;;;;;;5031411;28;20325;-71
2022/08/29 04:05:07;;;;;;;16.90;9.57;;;16.70;92.00;;;;;;5039816;28;20514;-74
2022/08/29 04:07:41;;;;;;;14.53;8.80;;;16.70;91.00;;;;;;5039789;28;20199;-73
2022/08/29 04:10:09;;;;;;;14.50;7.77;;;16.70;91.00;;;;;;5037915;28;20445;-71
2022/08/29 04:12:34;;;;;;;12.90;8.67;;;16.70;90.90;;;;;;5036843;28;20430;-72
2022/08/29 04:15:00;;;;;;;14.00;8.63;;;16.60;90.90;;;;;;5040229;28;21044;-72
2022/08/29 04:17:25;;;;;;;13.07;8.37;;;16.60;91.10;;;;;;5039755;28;20230;-70
2022/08/29 04:19:51;;;;;;;17.00;9.43;;;16.60;91.40;;;;;;5037995;28;20201;-72
2022/08/29 04:22:16;;;;;;;16.13;9.90;;;16.60;91.60;;;;;;5039230;28;20257;-72
2022/08/29 04:24:42;;;;;;;19.40;9.63;;;16.60;91.80;;;;;;5036713;28;20231;-71
2022/08/29 04:27:08;;;;;;;14.97;9.57;;;16.60;92.00;;;;;;5034426;28;20191;-72
2022/08/29 04:29:33;;;;;;;21.87;12.03;;;16.70;92.10;;;;;;5034967;28;20570;-73
2022/08/29 04:31:59;;;;;;;16.13;9.70;;;16.50;92.20;;;;;;5040108;28;20289;-72
2022/08/29 04:34:25;;;;;;;15.00;8.83;;;16.50;92.50;;;;;;5041170;28;20463;-73
2022/08/29 04:36:50;;;;;;;15.37;9.07;;;16.50;92.40;;;;;;5040500;28;20656;-73
2022/08/29 04:39:16;;;;;;;12.97;9.07;;;16.50;91.70;;;;;;5036988;28;20315;-73
2022/08/29 04:41:42;;;;;;;15.83;9.00;;;16.50;91.30;;;;;;5037544;28;20681;-72
2022/08/29 04:44:10;;;;;;;16.47;9.80;;;16.40;91.40;;;;;;5036398;28;20431;-72
2022/08/29 04:46:37;;;;;;;15.50;9.07;;;16.40;91.50;;;;;;5039282;28;20271;-72
2022/08/29 04:49:03;;;;;;;16.60;10.00;;;16.40;91.70;;;;;;5034063;28;20429;-72
2022/08/29 04:51:29;;;;;;;16.63;10.10;;;16.40;91.70;;;;;;5038803;28;20473;-72
2022/08/29 04:53:55;;;;;;;20.73;10.37;;;16.30;91.80;;;;;;5037646;28;20463;-71
2022/08/29 04:56:21;;;;;;;18.57;9.40;;;16.30;92.30;;;;;;5039128;28;20218;-71
2022/08/29 04:58:49;;;;;;;16.50;9.70;;;16.30;92.60;;;;;;5033711;28;20426;-71
2022/08/29 05:01:17;;;;;;;14.03;9.70;;;16.40;92.60;;;;;;5037802;28;20862;-71
2022/08/29 05:03:42;;;;;;;16.20;10.87;;;16.40;92.50;;;;;;5031340;28;21119;-73
2022/08/29 05:06:12;;;;;;;15.70;9.53;;;16.40;92.40;;;;;;5040398;28;20453;-72
2022/08/29 05:08:40;;;;;;;15.00;10.13;;;16.40;92.50;;;;;;5036233;28;20271;-72
2022/08/29 05:11:11;;;;;;;15.60;9.53;;;16.50;92.40;;;;;;5033288;28;20465;-72
2022/08/29 05:13:37;;;;;;;14.87;9.20;;;16.50;92.30;;;;;;5032067;28;20494;-73
2022/08/29 05:16:08;;;;;;;14.63;8.87;;;16.50;92.30;;;;;;5037770;28;20426;-70
2022/08/29 05:18:34;;;;;;;11.73;7.53;;;16.60;92.10;;;;;;5033702;28;20196;-73
2022/08/29 05:20:59;;;;;;;14.83;9.60;;;16.50;91.00;;;;;;5043619;28;20570;-72
2022/08/29 05:23:25;;;;;;;14.67;9.83;;;16.50;90.60;;;;;;5045091;28;20520;-73
2022/08/29 05:25:57;;;;;;;14.80;9.13;;;16.50;90.80;;;;;;5038291;28;20644;-72
2022/08/29 05:28:23;;;;;;;18.40;9.63;;;16.40;90.80;;;;;;5044753;28;20228;-71
2022/08/29 05:30:49;;;;;;;14.13;9.07;;;16.30;91.10;;;;;;5040148;28;20527;-71
2022/08/29 05:33:16;;;;;;;15.07;9.23;;;16.20;91.20;;;;;;5040168;28;20515;-71
2022/08/29 05:35:41;;;;;;;18.43;9.63;;;16.20;91.50;;;;;;5043716;28;20530;-73
2022/08/29 05:38:07;;;;;;;16.20;9.50;;;16.10;91.50;;;;;;5047639;28;20853;-71
2022/08/29 05:40:34;;;;;;;14.00;9.47;;;16.20;91.50;;;;;;5037435;28;20481;-73
2022/08/29 05:43:00;;;;;;;14.50;9.97;;;16.30;91.40;;;;;;5046149;28;20192;-72
2022/08/29 05:45:26;;;;;;;16.33;10.30;;;16.30;91.50;;;;;;5034330;28;20439;-71
2022/08/29 05:47:51;;;;;;;15.33;9.10;;;16.40;91.60;;;;;;5044718;28;20278;-71
2022/08/29 05:50:17;;;;;;;22.27;10.30;;;16.40;91.60;;;;;;5037502;28;20202;-72
2022/08/29 05:52:43;;;;;;;14.47;9.83;;;16.50;91.60;;;;;;5042347;28;20188;-70
2022/08/29 05:55:10;;;;;;;17.60;11.13;;;16.60;91.60;;;;;;5040954;28;20215;-72
2022/08/29 05:57:35;;;;;;;17.27;10.83;;;16.70;91.40;;;;;;5040741;28;20432;-72
2022/08/29 06:00:03;;;;;;;20.80;12.07;;;16.80;91.10;;;;;;5036141;28;20431;-73
2022/08/29 06:02:28;;;;;;;16.77;10.70;;;16.80;91.10;;;;;;5043832;28;20291;-73
2022/08/29 06:04:54;;;;;;;17.93;10.27;;;16.90;91.20;;;;;;5046106;28;20439;-74
2022/08/29 06:07:20;;;;;;;18.27;11.70;;;17.00;91.10;;;;;;5044415;28;20204;-73
2022/08/29 06:09:45;;;;;;;19.07;11.53;;;17.10;90.90;;;;;;5041252;28;20198;-74
2022/08/29 06:12:13;;;;;;;18.07;11.73;;;17.10;90.90;;;;;;5042107;28;20212;-73
2022/08/29 06:14:39;;;;;;;21.73;10.97;;;17.10;90.90;;;;;;5043492;28;20697;-71
2022/08/29 06:17:05;;;;;;;20.87;11.43;;;17.20;90.70;;;;;;5036025;28;20431;-73
2022/08/29 06:19:33;;;;;;;18.60;11.53;;;17.20;90.60;;;;;;5037388;28;20207;-73
2022/08/29 06:22:02;;;;;;;19.77;12.57;;;17.40;90.40;;;;;;5035737;28;20519;-72
2022/08/29 06:24:28;;;;;;;19.90;13.27;;;17.40;90.30;;;;;;5042478;28;20435;-72
2022/08/29 06:26:54;;;;;;;22.20;13.63;;;17.50;90.50;;;;;;5041463;28;20438;-74
2022/08/29 06:29:19;;;;;;;20.97;12.50;;;17.60;90.50;;;;;;5040543;28;20562;-72
2022/08/29 06:31:45;;;;;;;20.30;12.53;;;17.60;90.50;;;;;;5040811;28;20216;-71
2022/08/29 06:34:11;;;;;;;23.33;11.57;;;17.70;90.10;;;;;;5039399;28;20300;-73
2022/08/29 06:36:37;;;;;;;22.60;12.47;;;17.80;89.60;;;;;;5038362;28;20646;-73
2022/08/29 06:39:06;;;;;;;20.50;11.87;;;17.80;89.20;;;;;;5044522;28;20682;-73
2022/08/29 06:41:32;;;;;;;19.20;11.97;;;17.90;88.40;;;;;;5038945;28;20555;-74
2022/08/29 06:43:58;;;;;;;23.33;12.70;;;17.90;88.40;;;;;;5040835;28;20442;-73
2022/08/29 06:46:27;;;;;;;19.73;11.93;;;18.00;88.10;;;;;;5038363;28;20936;-73
2022/08/29 06:48:54;;;;;;;21.17;11.77;;;18.10;87.80;;;;;;5039503;28;20793;-73
2022/08/29 06:51:19;;;;;;;21.43;12.17;;;18.10;87.30;;;;;;5036494;28;20473;-76
2022/08/29 06:53:45;;;;;;;22.27;11.53;;;18.20;86.80;;;;;;5039113;28;20838;-73
2022/08/29 06:56:11;;;;;;;20.63;10.90;;;18.10;86.80;;;;;;5037511;28;20238;-74
2022/08/29 06:58:37;;;;;;;18.73;10.67;;;18.20;86.90;;;;;;5039594;28;20260;-71
2022/08/29 07:01:06;;;;;;;22.50;11.63;;;18.30;86.30;;;;;;5042300;28;20522;-73
2022/08/29 07:03:32;;;;;;;19.73;12.07;;;18.40;86.20;;;;;;5042722;28;20538;-72
2022/08/29 07:05:58;;;;;;;20.70;11.23;;;18.40;85.90;;;;;;5043836;28;20495;-74
2022/08/29 07:08:23;;;;;;;20.10;11.33;;;18.40;85.70;;;;;;5046580;28;20608;-72
2022/08/29 07:10:49;;;;;;;22.50;11.50;;;18.50;85.60;;;;;;5041003;28;20213;-74
2022/08/29 07:13:15;;;;;;;19.77;11.90;;;18.50;85.60;;;;;;5041637;28;20185;-73
2022/08/29 07:15:40;;;;;;;22.70;12.07;;;18.60;85.30;;;;;;5039443;28;20526;-72
2022/08/29 07:18:06;;;;;;;18.20;11.53;;;18.70;85.00;;;;;;5039686;28;20197;-72
2022/08/29 07:20:32;;;;;;;24.10;11.07;;;18.80;84.60;;;;;;5045912;28;20221;-72
2022/08/29 07:22:57;;;;;;;21.50;11.60;;;18.80;84.00;;;;;;5041550;28;20591;-71
2022/08/29 07:25:23;;;;;;;18.50;10.80;;;18.80;84.00;;;;;;5039519;28;20221;-73
2022/08/29 07:27:50;;;;;;;22.33;11.93;;;18.80;83.80;;;;;;5036874;28;20190;-71
2022/08/29 07:30:17;;;;;;;18.20;10.73;;;18.90;84.00;;;;;;5035956;28;20512;-72
2022/08/29 07:32:44;;;;;;;20.77;11.70;;;19.00;83.70;;;;;;5043530;28;20454;-76
2022/08/29 07:35:14;;;;;;;20.70;12.23;;;19.10;82.80;;;;;;5036688;28;20482;-72
2022/08/29 07:37:40;;;;;;;20.17;12.30;;;19.10;83.00;;;;;;5037236;28;20925;-70
2022/08/29 07:40:07;;;;;;;19.17;11.80;;;19.10;82.80;;;;;;5042414;28;20512;-70
2022/08/29 07:42:37;;;;;;;20.43;11.33;;;19.10;82.50;;;;;;5032598;28;20422;-70
2022/08/29 07:45:07;;;;;;;29.30;12.53;;;19.10;82.50;;;;;;5044755;28;20420;-71
2022/08/29 07:47:34;;;;;;;20.23;12.00;;;19.10;82.80;;;;;;5032487;28;21001;-73
2022/08/29 07:50:05;;;;;;;23.40;11.80;;;19.20;83.10;;;;;;5043107;28;20431;-70
2022/08/29 07:52:31;;;;;;;21.83;11.80;;;19.20;82.40;;;;;;5041690;28;20940;-70
2022/08/29 07:54:56;;;;;;;23.17;13.33;;;19.30;82.50;;;;;;5044703;28;20478;-71
2022/08/29 07:57:22;;;;;;;20.73;12.03;;;19.40;82.50;;;;;;5037703;28;20202;-71
2022/08/29 07:59:48;;;;;;;27.67;13.40;;;19.50;82.40;;;;;;5041063;28;20572;-70
2022/08/29 08:02:14;;;;;;;26.07;12.33;;;19.60;82.10;;;;;;5039815;28;20301;-73
2022/08/29 08:04:39;;;;;;;25.33;13.93;;;19.70;81.80;;;;;;5038523;28;20234;-71
2022/08/29 08:07:05;;;;;;;22.00;12.03;;;19.90;80.90;;;;;;5042579;28;20190;-72
2022/08/29 08:09:31;;;;;;;17.20;11.77;;;19.90;80.60;;;;;;5041502;28;20236;-71
2022/08/29 08:11:57;;;;;;;18.23;11.53;;;20.00;80.20;;;;;;5040574;28;20217;-70
2022/08/29 08:14:22;;;;;;;20.70;12.70;;;20.10;80.00;;;;;;5040290;28;20344;-72
2022/08/29 08:16:48;;;;;;;18.40;11.67;;;20.10;79.70;;;;;;5037300;28;20475;-72
2022/08/29 08:19:14;;;;;;;18.47;11.27;;;20.10;79.60;;;;;;5041368;28;20701;-72
2022/08/29 08:21:42;;;;;;;19.23;11.97;;;20.10;79.70;;;;;;5037790;28;20212;-73
2022/08/29 08:24:08;;;;;;;19.83;12.23;;;20.20;79.60;;;;;;5038253;28;20439;-72
2022/08/29 08:26:34;;;;;;;19.57;12.10;;;20.20;79.50;;;;;;5039578;28;20796;-75
2022/08/29 08:29:00;;;;;;;22.17;11.90;;;20.20;79.60;;;;;;5036445;28;20438;-71
2022/08/29 08:31:26;;;;;;;19.70;11.00;;;20.30;79.30;;;;;;5040208;28;20558;-73
2022/08/29 08:33:53;;;;;;;22.83;12.20;;;20.50;79.20;;;;;;5035021;28;20468;-72
2022/08/29 08:36:21;;;;;;;19.30;11.53;;;20.70;78.10;;;;;;5041175;28;20473;-73
2022/08/29 08:38:48;;;;;;;26.97;12.97;;;20.80;78.00;;;;;;5035196;28;20797;-73
2022/08/29 08:41:35;;;;;;;22.30;13.00;;;20.90;77.30;;;;;;5040901;28;20455;-72
2022/08/29 08:44:11;;;;;;;24.00;11.77;;;21.00;77.40;;;;;;5041186;28;20413;-73
2022/08/29 08:46:43;;;;;;;18.17;11.50;;;21.10;76.80;;;;;;5046193;28;20427;-72
2022/08/29 08:49:22;;;;;;;21.93;11.30;;;21.20;76.50;;;;;;5033573;28;20537;-73
2022/08/29 08:51:53;;;;;;;19.83;11.67;;;21.30;75.70;;;;;;5034749;28;20843;-72
2022/08/29 08:54:33;;;;;;;23.40;12.63;;;21.30;75.50;;;;;;5042277;28;20522;-71
2022/08/29 08:57:11;;;;;;;17.33;10.93;;;21.30;75.50;;;;;;5047801;28;20439;-71
2022/08/29 08:59:42;;;;;;;21.17;11.50;;;21.60;75.20;;;;;;5048439;28;20418;-71
2022/08/29 09:02:39;;;;;;;17.87;11.73;;;21.70;74.20;;;;;;5037372;28;20549;-75
2022/08/29 09:05:22;;;;;;;17.73;10.50;;;21.70;74.20;;;;;;5043162;28;20433;-72
2022/08/29 09:08:18;;;;;;;18.73;10.70;;;21.70;74.20;;;;;;5048110;28;20424;-71
2022/08/29 09:11:14;;;;;;;14.37;9.90;;;21.80;74.20;;;;;;5041674;28;20457;-71
2022/08/29 09:13:40;;;;;;;17.73;9.90;;;22.00;73.30;;;;;;5043044;28;20866;-72
2022/08/29 09:16:20;;;;;;;18.60;10.90;;;22.00;72.90;;;;;;5037887;28;20462;-71
2022/08/29 09:18:46;;;;;;;16.87;10.73;;;22.00;72.90;;;;;;5041588;28;20211;-70
2022/08/29 09:21:20;;;;;;;15.27;10.63;;;21.90;73.30;;;;;;5035978;28;20591;-72
2022/08/29 09:23:49;;;;;;;14.87;9.70;;;22.00;73.00;;;;;;5043319;28;20196;-73
2022/08/29 09:26:17;;;;;;;19.13;10.50;;;22.20;72.70;;;;;;5038988;28;20433;-72
2022/08/29 09:28:43;;;;;;;11.60;8.03;;;22.40;72.10;;;;;;5049923;28;20434;-70
2022/08/29 09:31:44;;;;;;;14.27;9.97;;;22.60;71.30;;;;;;5045645;28;20457;-72
2022/08/29 09:34:31;;;;;;;17.70;10.20;;;22.60;71.10;;;;;;5020000;28;20863;-70
2022/08/29 09:36:57;;;;;;;15.77;10.10;;;22.80;70.70;;;;;;5022929;28;20802;-70
2022/08/29 09:39:31;;;;;;;13.93;10.00;;;22.90;70.20;;;;;;5021503;28;20436;-71
2022/08/29 09:42:16;;;;;;;15.73;9.70;;;22.90;70.10;;;;;;5020270;28;20287;-69
2022/08/29 09:44:55;;;;;;;16.20;9.80;;;22.90;69.90;;;;;;5018275;28;20430;-72
2022/08/29 09:47:26;;;;;;;18.50;9.37;;;23.10;69.20;;;;;;5020537;28;20438;-72
2022/08/29 09:50:23;;;;;;;13.43;8.70;;;23.20;68.80;;;;;;5019470;28;20490;-69
2022/08/29 09:53:00;;;;;;;16.63;9.43;;;23.30;68.50;;;;;;5019864;28;20484;-72
2022/08/29 09:55:41;;;;;;;14.40;9.10;;;23.50;67.50;;;;;;5021146;28;20474;-72
2022/08/29 09:58:17;;;;;;;15.97;8.60;;;23.40;67.30;;;;;;5021026;28;20426;-72
2022/08/29 10:01:04;;;;;;;18.00;9.07;;;23.50;67.50;;;;;;5022450;28;20468;-70
2022/08/29 10:03:34;;;;;;;11.33;8.50;;;23.60;66.90;;;;;;5019511;28;20460;-71
2022/08/29 10:06:07;;;;;;;11.20;8.20;;;23.70;66.30;;;;;;5030337;28;21212;-71
2022/08/29 10:08:35;;;;;;;10.57;7.73;;;23.70;66.30;;;;;;5043503;28;20429;-71
2022/08/29 10:11:16;;;;;;;14.40;7.90;;;23.80;66.30;;;;;;5056508;28;20544;-72
2022/08/29 10:13:48;;;;;;;14.53;9.00;;;23.90;66.40;;;;;;5054195;28;20447;-70
2022/08/29 10:16:24;;;;;;;14.13;8.40;;;23.90;66.40;;;;;;5052824;28;20430;-71
2022/08/29 10:18:56;;;;;;;14.80;8.67;;;24.00;65.40;;;;;;5059874;28;20499;-73
2022/08/29 10:21:40;;;;;;;14.60;8.50;;;24.10;65.70;;;;;;5054067;28;20449;-70
2022/08/29 10:24:30;;;;;;;15.40;7.50;;;24.10;65.10;;;;;;5054138;28;20432;-74
2022/08/29 10:27:02;;;;;;;13.80;8.40;;;24.10;65.10;;;;;;5047435;28;20432;-71
2022/08/29 10:29:48;;;;;;;12.07;6.80;;;24.10;65.30;;;;;;5050051;28;20418;-72
2022/08/29 10:32:31;;;;;;;12.97;8.37;;;24.40;64.80;;;;;;5043317;28;20547;-70
2022/08/29 10:35:00;;;;;;;12.10;8.47;;;24.40;64.80;;;;;;5055169;28;20460;-70
2022/08/29 10:37:37;;;;;;;19.53;9.90;;;24.30;65.10;;;;;;5055484;28;20416;-69
2022/08/29 10:40:12;;;;;;;11.67;8.47;;;24.10;66.30;;;;;;5048438;28;20421;-71
2022/08/29 10:42:41;;;;;;;10.80;7.77;;;24.30;66.10;;;;;;5045416;28;20904;-70
2022/08/29 10:45:33;;;;;;;14.30;8.43;;;24.50;63.50;;;;;;5045618;28;20422;-70
2022/08/29 10:48:09;;;;;;;10.53;7.97;;;24.70;64.10;;;;;;5049522;28;20446;-70
2022/08/29 10:51:01;;;;;;;13.77;8.53;;;24.80;63.80;;;;;;5050263;28;20595;-72
2022/08/29 10:53:35;;;;;;;11.63;7.90;;;24.90;63.80;;;;;;5056241;28;20606;-70
2022/08/29 10:56:13;;;;;;;16.83;8.30;;;24.90;63.40;;;;;;5052865;28;20435;-70
2022/08/29 10:58:48;;;;;;;14.27;8.20;;;25.00;63.40;;;;;;5051766;28;20496;-72
2022/08/29 11:01:24;;;;;;;11.70;8.37;;;25.10;63.40;;;;;;5055159;28;20514;-72
2022/08/29 11:04:09;;;;;;;10.27;7.77;;;25.20;62.00;;;;;;5054145;28;20415;-70
2022/08/29 11:06:42;;;;;;;9.30;6.97;;;25.20;61.70;;;;;;5055518;28;20427;-73
2022/08/29 11:09:32;;;;;;;12.83;7.40;;;25.50;60.90;;;;;;5050562;28;20429;-71
2022/08/29 11:12:28;;;;;;;10.80;6.90;;;25.90;58.90;;;;;;5050877;28;20479;-70
2022/08/29 11:15:29;;;;;;;14.40;7.60;;;25.60;59.10;;;;;;5037966;28;21083;-70
2022/08/29 11:18:13;;;;;;;9.53;7.20;;;25.70;59.60;;;;;;5047640;28;20451;-69
2022/08/29 11:20:45;;;;;;;9.97;6.87;;;26.20;58.10;;;;;;5041970;28;20461;-70
2022/08/29 11:23:42;;;;;;;10.97;7.77;;;26.00;58.80;;;;;;5041904;28;20426;-71
2022/08/29 11:26:25;;;;;;;11.90;7.63;;;26.50;57.60;;;;;;5037797;28;21009;-71
2022/08/29 11:29:06;;;;;;;10.27;7.33;;;26.30;57.00;;;;;;5038363;28;20462;-70
2022/08/29 11:31:50;;;;;;;8.97;6.73;;;25.70;59.10;;;;;;5037030;28;20526;-70
2022/08/29 11:34:56;;;;;;;8.67;6.43;;;25.90;58.70;;;;;;5038364;28;20462;-71
2022/08/29 11:37:31;;;;;;;11.17;6.57;;;25.80;58.50;;;;;;5047367;28;20512;-71
2022/08/29 11:40:13;;;;;;;8.43;6.40;;;26.00;58.40;;;;;;5044539;28;20720;-72
2022/08/29 11:42:42;;;;;;;9.93;6.60;;;26.10;57.70;;;;;;5042068;28;20437;-72
2022/08/29 11:45:13;;;;;;;10.10;6.17;;;25.90;57.70;;;;;;5038728;28;20426;-74
2022/08/29 11:47:45;;;;;;;10.47;6.90;;;25.80;58.10;;;;;;5042995;28;20422;-73
2022/08/29 11:50:13;;;;;;;11.20;6.93;;;25.50;58.40;;;;;;5036926;28;20512;-72
2022/08/29 11:52:58;;;;;;;10.03;7.23;;;25.30;59.30;;;;;;5037239;28;20911;-72
2022/08/29 11:55:32;;;;;;;8.90;6.50;;;25.40;58.70;;;;;;5032701;28;20910;-72
2022/08/29 11:58:07;;;;;;;9.83;6.40;;;25.60;58.70;;;;;;5039175;28;20434;-73
2022/08/29 12:00:58;;;;;;;14.53;7.17;;;26.00;57.60;;;;;;5031786;28;20469;-72
2022/08/29 12:03:33;;;;;;;8.37;6.57;;;26.40;55.70;;;;;;5040032;28;20823;-73
2022/08/29 12:06:14;;;;;;;9.90;6.90;;;27.10;55.20;;;;;;5045501;28;20434;-74
2022/08/29 12:09:00;;;;;;;10.57;6.67;;;27.90;52.60;;;;;;5035567;28;20533;-73
2022/08/29 12:12:03;;;;;;;9.53;7.57;;;28.30;52.10;;;;;;5038003;28;20869;-73
2022/08/29 12:14:30;;;;;;;13.70;6.80;;;28.30;50.20;;;;;;5031361;28;20463;-72
2022/08/29 12:16:57;;;;;;;9.90;6.40;;;27.50;51.70;;;;;;5040307;28;20429;-71
2022/08/29 12:19:50;;;;;;;11.60;6.40;;;27.10;53.00;;;;;;5036047;28;20474;-71
2022/08/29 12:22:44;;;;;;;12.00;7.10;;;27.20;52.90;;;;;;5038085;28;20463;-70
2022/08/29 12:25:36;;;;;;;8.60;5.93;;;27.40;52.50;;;;;;5037300;28;20431;-73
2022/08/29 12:28:19;;;;;;;10.17;5.77;;;27.90;51.30;;;;;;5036437;28;20764;-72
2022/08/29 12:30:57;;;;;;;11.23;6.97;;;27.30;52.50;;;;;;5040658;28;20497;-71
2022/08/29 12:33:47;;;;;;;11.10;6.50;;;27.20;53.00;;;;;;5035729;28;20430;-73
2022/08/29 12:36:38;;;;;;;8.93;6.53;;;27.40;52.50;;;;;;5043446;28;20422;-71
2022/08/29 12:39:42;;;;;;;9.33;6.73;;;27.60;52.50;;;;;;5040377;28;20411;-72
2022/08/29 12:42:59;;;;;;;9.60;6.67;;;27.60;51.40;;;;;;5016589;28;20521;-73
2022/08/29 12:45:27;;;;;;;8.10;6.10;;;27.70;51.00;;;;;;4991697;28;20418;-71
2022/08/29 12:48:14;;;;;;;10.53;6.73;;;27.60;51.80;;;;;;5021480;28;20483;-71
2022/08/29 12:50:44;;;;;;;21.53;6.53;;;27.80;50.70;;;;;;5023531;28;20458;-74
2022/08/29 12:53:24;;;;;;;9.97;6.13;;;27.40;51.00;;;;;;5021112;28;20808;-73